AirNav   Everest Fuels
 
 602 users online  

54T RWJ Airpark
Baytown, Texas, USA

GOING TO BAYTOWN?


FAA INFORMATION EFFECTIVE 26 MARCH 2020

Location

FAA Identifier: 54T
Lat/Long: 29-45-42.8200N 094-50-52.5800W
29-45.713667N 094-50.876333W
29.7618944,-94.8479389
(estimated)
Elevation: 33 ft. / 10 m (estimated)
Variation: 05E (1985)
From city: 7 miles E of BAYTOWN, TX
Time zone: UTC -5 (UTC -6 during Standard Time)
Zip code: 77520

Airport Operations

Airport use: Open to the public
Activation date: 02/1977
Control tower: no
ARTCC: HOUSTON CENTER
FSS: MONTGOMERY COUNTY FLIGHT SERVICE STATION
NOTAMs facility: CXO (NOTAM-D service available)
Attendance: MON-FRI 0800-1800
Wind indicator: yes
Segmented circle: no
Lights: SS-SR
Beacon: white-green (lighted land airport)
Operates sunset to sunrise.

Airport Communications

CTAF/UNICOM: 122.7
HOUSTON APPROACH: 134.45
HOUSTON DEPARTURE: 134.45
BLTWY RNAV DP: 134.45
BLUEBELL STAR: 124.225
BORRN RNAV DP: 134.45
CESAN STAR: 121.3
DREMR DP: 134.45
HOODO RNAV DP: 119.7 134.45
HUDZY STAR: 120.05
KARRR RNAV DP: 134.45
LURIC DP: 134.45
MMALT RNAV DP: 134.45
OHIIO STAR: 120.05
STRYA DP: 134.45
STYCK DP: 134.45
TCHDN STAR: 119.175
TKNIQ STAR: 119.625
WAPPL STAR: 120.05
WATFO DP: 134.45
WYLSN RNAV DP: 134.45
WX AWOS-3PT at T41 (13 nm SW): 120.275 (281-471-2206)

Nearby radio navigation aids

VOR radial/distance  VOR name  Freq  Var
MHFr331/14.0TRINITY VOR/DME113.6007E
DASr197/27.8DAISETTA VORTAC116.9005E
IAHr109/28.4HUMBLE VORTAC116.6005E
VUHr356/29.6SCHOLES VOR/DME113.0006E

 
NDB name  Hdg/Dist  Freq  Var  ID
GALVESTON341/26.120608EGLS --. .-.. ...
GOODHUE234/37.936807EGDE --. -.. .

Airport Services

Fuel available: 100LL JET-A
Parking: hangars and tiedowns
Airframe service: NONE
Powerplant service: NONE

Runway Information

Runway 8/26

Dimensions: 5035 x 40 ft. / 1535 x 12 m
EAST 1100 FT 60 FT WIDE.
Surface: asphalt, in fair condition
Weight bearing capacity: 
Single wheel: 6.0
Runway edge lights: low intensity
LIRL LCTD 15 FT FM RY EDGE WEST 3935 FT.
Runway edge markings: RY 08/26 NRS 35 FT TALL; THLD BAR 15 INCHES WIDE; DSPLCD THLD MKGS NSTD.
RUNWAY 8  RUNWAY 26
Latitude: 29-45.692283N29-45.706400N
Longitude: 094-51.266617W094-50.314733W
Elevation: 29.8 ft.26.7 ft.
Traffic pattern: leftleft
Runway heading: 084 magnetic, 089 true264 magnetic, 269 true
Displaced threshold: no939 ft.
Markings: NSTD, in fair conditionNSTD, in fair condition
Touchdown point: yes, no lightsyes, no lights
Obstructions: 18 ft. bldg, 300 ft. from runway, 168 ft. left of centerline, 5:1 slope to clear75 ft. tower, 650 ft. from runway, 100 ft. left of centerline, 6:1 slope to clear
+15 FT RD 0-200 FT FM THLD 60 FT R CNTRLN; +4 FT FENCE 0-200 FT FM THLD 92 FT R CNTRLN.

Runway 14/32

Dimensions: 3532 x 100 ft. / 1077 x 30 m
Surface: turf, in fair condition
Weight bearing capacity: 
Single wheel: 4.0
RUNWAY 14  RUNWAY 32
Latitude: 29-45.980100N29-45.488450N
Longitude: 094-51.178733W094-50.820383W
Elevation: 33.0 ft.28.0 ft.
Traffic pattern: leftleft
Runway heading: 143 magnetic, 148 true323 magnetic, 328 true
Touchdown point: no, no lightsyes, no lights
Obstructions: 15 ft. road, 50 ft. left of centerline
APCH RATIO 16:1 FM DSPLCD THLD OVER 51 FT TREES, 837 FT DSTC, 95 FT R.
35 ft. trees, 125 ft. from runway, 3:1 slope to clear

Airport Ownership and Management from official FAA records

Ownership: Privately-owned
Owner: RWP PROPERTY OWNERS ASSOCIATION
15814 SUNDOWNER
MOUNT BELVIEU, TX 77580
Phone (281) 573-9609
Manager: JIM MOORE
15814 SUNDOWNER
BAYTOWN, TX 77520
Phone (281) 573-9609

Airport Operational Statistics

Aircraft based on the field: 45
Single engine airplanes: 30
Multi engine airplanes: 3
Ultralights: 12
    
Aircraft operations: avg 25/day *
68% local general aviation
32% transient general aviation
* for 12-month period ending 31 December 2016

Additional Remarks

TWY TOO NARROW FOR SOME ACFT USE EXTREME CARE. TWIN ENGINE ACFT PROHIBIT ON TWY.
FOR ARPT COND & SERVICES CALL 281-383-2320.
RY 08 28 FT PLINE (MKD & LIGHTED), 468 FT FM RWY END
FOR CD CTC HOUSTON APCH AT 281-443-5844 TO CNL IFR CALL 281-443-5888.

Instrument Procedures

NOTE: All procedures below are presented as PDF files. If you need a reader for these files, you should download the free Adobe Reader.

NOT FOR NAVIGATION. Please procure official charts for flight.
FAA instrument procedures published for use from 26 March 2020 at 0901Z to 23 April 2020 at 0900Z.

 
STARs - Standard Terminal Arrivals
BLUBELL FOUR **NEW**   download (300KB)
CESAN FOUR (RNAV)   2 pages: [1] [2] (359KB)
HUDZY FOUR **CHANGED**   2 pages: [1] [2] (315KB)
OHIIO FOUR   download (294KB)
TKNIQ TWO (RNAV) **CHANGED**   2 pages: [1] [2] (286KB)
TSHRT ONE ARRIVAL **NEW**   2 pages: [1] [2] (340KB)
WAPPL FIVE (RNAV) **NEW**   2 pages: [1] [2] (379KB)
WAPPL FIVE (RNAV), CONT.2 **NEW**   download (263KB)
 
IAPs - Instrument Approach Procedures
RNAV (GPS)-A   download (137KB)
 
Departure Procedures
BLTWY SIX (RNAV)   download (127KB)
BORRN FOUR (RNAV)   2 pages: [1] [2] (247KB)
HOODO SIX (RNAV)   download (179KB)
INDIE SEVEN (RNAV)   download (151KB)
KARRR SIX (RNAV)   2 pages: [1] [2] (203KB)
LURIC SEVEN (RNAV)   download (171KB)
MMALT FIVE (RNAV)   download (186KB)
PALACIOS ONE **CHANGED**   2 pages: [1] [2] (254KB)
STRYA SEVEN (RNAV)   download (157KB)
STYCK SEVEN (RNAV)   download (145KB)
WATFO FIVE (RNAV)   download (133KB)
WYLSN SEVEN (RNAV)   download (135KB)
NOTE: Special Take-Off Minimums/Departure Procedures apply   download (118KB)

Other nearby airports with instrument procedures:

KHPY - Baytown Airport (6 nm W)
T00 - Chambers County Airport (10 nm E)
T41 - La Porte Municipal Airport (13 nm SW)
KEFD - Ellington Airport (19 nm SW)
T78 - Liberty Municipal Airport (20 nm N)
 
Loc | Ops | Rwys | IFR | FBO | Links
Com | Nav | Svcs | Stats | Notes
Area around 54T (RWJ Airpark)
 
Road maps at: MapQuest Bing Google
 
Aerial photo
WARNING: Photo may not be current or correct
Aerial photo of 54T (RWJ Airpark)
Photo taken 20-Mar-2008

Do you have a better or more recent aerial photo of RWJ Airpark that you would like to share? If so, please send us your photo.

 
Sectional chart

 
Airport distance calculator
Flying to RWJ Airpark? Find the distance to fly.

From to 54T

Sunrise and sunset
Times for 08-Apr-2020
 Local
(UTC-5)
 Zulu
(UTC)
Morning civil twilight06:3611:36
Sunrise07:0012:00
Sunset19:4200:42
Evening civil twilight20:0601:06

Current date and time
Zulu (UTC)  09-Apr-2020 04:33:47
Local (UTC-5)  08-Apr-2020 23:33:47
 
METAR
KEFD 
19nm SW 
090350Z 17006KT 10SM BKN250 24/22 A2987
KHOU 
24nm W 
090353Z 21006KT 10SM BKN250 25/21 A2988 RMK AO2 SLP123 T02500206
KLVJ 
26nm SW 
090353Z AUTO 20005KT 9SM CLR 24/21 A2990 RMK AO2 SLP124 T02440211
KGLS 
30nm S 
090352Z AUTO 20010KT 10SM CLR 25/23 A2989 RMK AO2 SLP120 T02500233
KIAH 
31nm NW 
090353Z 18003KT 7SM BKN230 26/22 A2987 RMK AO2 SLP116 T02610222
KAXH 
36nm SW 
090355Z AUTO 20004KT 10SM CLR 23/23 A2990 RMK AO2 T02340225
K6R3 
37nm N 
090355Z AUTO 19003KT 3SM BR CLR 23/22 A2988 RMK AO2 T02310223
KBMT 
38nm NE 
090355Z AUTO 00000KT 10SM CLR 24/23 A2987 RMK AO2 T02350225
TAF
KEFD 
19nm SW 
090400Z 0904/1010 18006KT 8000 BR SCT020 QNH2981INS BECMG 0913/0914 21006KT 8000 BR OVC003 QNH2984INS BECMG 0916/0917 VRB06KT 9999 NSW BKN015 QNH2978INS BECMG 0920/0921 14006KT 9999 SCT017 QNH2975INS BECMG 1000/1001 VRB06KT 8000 -SHRA BKN024 QNH2976INS TEMPO 1001/1005 20025G35KT 8000 -TSRA BKN024CB OVC040 BECMG 1009/1010 05009KT 9000 -SHRA FEW017 QNH2984INS TX28/0921Z TN20/0910Z
KHOU 
24nm W 
090308Z 0903/0924 19006KT P6SM FEW025 BKN250 FM090800 22005KT P6SM SCT009 BKN015 FM091000 22005KT 4SM BR SCT009 BKN015 FM091400 25005KT P6SM SCT011 BKN028 FM091600 VRB04KT P6SM SCT020 BKN035 FM092100 14009KT P6SM VCTS SCT030CB BKN060
NOTAMs
Click for the latest NOTAMs
NOTAMs are issued by the DoD/FAA and will open in a separate window not controlled by AirNav.

 

 
 

FBO, Fuel Providers, and Aircraft Ground Support

  
 Business Name 
 
 Contact 
 
 Services / Description 
 
Fuel Prices
 
Comments
  
Bay Area Aviation 281-383-2320
no information available

If you are affiliated with Bay Area Aviation and would like to show here your services, contact info, web link, logo, and more, click here
100LL Jet A
SS $4.45 $3.25 
 Updated 25-Mar-2020
 
   write
SS=Self service
Update Fuel Prices
 

Would you like to see your business listed on this page?

 If your business provides an interesting product or service to pilots, flight crews, aircraft, or users of the RWJ Airpark, you should consider listing it here.  To start the listing process, click on the button below
 
Add a business
 

Other Pages about RWJ Airpark

Update a link
 
Copyright © AirNav, LLC. All rights reserved. Privacy Policy  Contact